Terminal Aerodrome Forecast
Issued by NWS Sioux Falls, SD

Home | Current Version | Previous Version | Text Only | Print | Product List | Glossary On
Versions: 1 2 3 4 5 6 7 8 9 10 11 12 13 14 15 16 17 18 19 20 21 22 23 24 25 26 27 28 29 30 31 32
747
FTUS43 KFSD 301728
TAFSUX
TAF
KSUX 301728Z 3018/3118 17010KT P6SM SCT150 BKN250
     FM302100 19015G23KT P6SM SCT080 BKN150
     FM310300 15009KT P6SM BKN140
     FM310500 18008KT P6SM SHRA VCTS BKN090CB
      TEMPO 3105/3107 VRB25G35KT 6SM TSRA BKN050CB
     FM310800 21008KT P6SM OVC060
     FM311100 30007KT P6SM OVC080=

USA.gov is the U.S. government's official web portal to all federal, state and local government web resources and services.